• Join FlightAware (Why Join?)
  • Login
  • US Flag 
02:49PM EDT


 

Airport Tracker/Info


-or-


 

Live Flight TrackerFlight Track Log ✈ AWE874 ✈ 04-May-2013 ✈ KRDU - KCLT

Flight Track Log - Related Links

Times and Time Zones

All times are in EDT time to prevent confusion due to time zone crossing. See the AWE874 flight status page for this flight to view local times or setup timezone preferences in your user account.

Time Position Orientation Groundspeed Altitude Reporting Facility
EDT Latitude Longitude Course Direction KTS MPH feet Rate Location/Type
07:13AM 35.8944 -78.7792 263° West 148 170 1,400  Level Washington Center
07:13AM 35.9053 -78.7719 28° Northeast 147 169 2,100 1,800 Climbing Washington Center
07:14AM 35.9575 -78.7689 North 232 267 3,800 1,980 Climbing Washington Center
07:15AM 35.9592 -78.8639 271° West 305 351 6,200 2,700 Climbing Washington Center
07:16AM 35.8480 -79.1372 263° West  Level FlightAware Approximate
07:17AM 35.8362 -79.2550 263° West  Level FlightAware Approximate
07:17AM 35.9392 -78.9811 258° West 313 360 9,900  Level Washington Center
07:18AM 35.8244 -79.3728 263° West  Level FlightAware Approximate
07:18AM 35.9172 -79.0878 256° West 313 360 11,300  Level Washington Center
07:21AM 35.8397 -79.4714 256° West 418 481 16,000 1,140 Climbing Atlanta Center
07:22AM 35.8156 -79.6033 257° West 407 468 16,000  Level Atlanta Center
07:23AM 35.8119 -79.7394 268° West 386 444 16,000  Level Atlanta Center
07:24AM 35.8103 -79.8725 269° West 381 438 16,000 -180 Level Atlanta Center
07:25AM 35.8119 -79.9850 271° West 381 438 15,700 -660 Descending Atlanta Center
07:25AM 35.8131 -80.0875 271° West 364 419 14,900 -900 Descending Atlanta Center
07:26AM 35.8117 -80.1081 265° West 376 433 14,800 -1,200 Descending Atlanta Center
07:26AM 35.8122 -80.1900 271° West 322 371 13,800 -1,320 Descending Atlanta Center
07:27AM 35.8111 -80.2208 267° West 357 411 13,500 -840 Descending Atlanta Center
07:27AM 35.8114 -80.2975 270° West 314 361 13,000 -540 Descending Atlanta Center
07:28AM 35.8106 -80.3411 269° West 338 389 13,000  Level Atlanta Center
07:28AM 35.8089 -80.4181 268° West 373 429 13,000 -120 Level Atlanta Center
07:29AM 35.7872 -80.4625 239° Southwest 353 406 12,900 -900 Descending Atlanta Center
07:29AM 35.7361 -80.5006 211° Southwest 364 419 12,100 -1,440 Descending Atlanta Center
07:30AM 35.7036 -80.5300 216° Southwest 328 377 11,500 -1,140 Descending Atlanta Center
07:30AM 35.6547 -80.5706 214° Southwest 351 404 11,000 -540 Descending Atlanta Center
07:31AM 35.6219 -80.5950 211° Southwest 350 403 11,000  Level Atlanta Center
07:31AM 35.5669 -80.6431 215° Southwest 347 399 11,000  Level Atlanta Center
07:32AM 35.5425 -80.6619 212° Southwest 355 409 11,000  Level Atlanta Center
07:32AM 35.4875 -80.7103 216° Southwest 347 399 11,000  Level Atlanta Center
07:33AM 35.4689 -80.7211 205° Southwest 355 409 11,000 -120 Level Atlanta Center
07:33AM 35.4017 -80.7775 214° Southwest 349 402 10,900 -480 Descending Atlanta Center
07:34AM 35.3281 -80.8364 213° Southwest 310 357 10,200 -1,020 Descending Atlanta Center
07:35AM 35.2531 -80.8367 180° South 254 292 8,900 -1,740 Descending Atlanta Center
07:36AM 35.1797 -80.8319 177° South 261 300 6,800 -2,160 Descending Atlanta Center
07:37AM 35.1128 -80.8269 177° South 255 293 4,800 -1,500 Descending Atlanta Center
07:38AM 35.0439 -80.8219 177° South 244 281 4,000 -420 Descending Atlanta Center
07:39AM 34.9881 -80.8444 198° South 237 273 4,000  Level Atlanta Center
07:40AM 35.0211 -80.9092 302° West 209 241 4,000 -480 Level Atlanta Center
07:41AM 35.0736 -80.9247 346° North 178 205 3,100 -840 Descending Atlanta Center